createdAt,value
2018-09-20T00:00:08.492Z,0
2018-09-20T00:01:09.887Z,0
2018-09-20T00:02:11.287Z,0
2018-09-20T00:03:12.676Z,0
2018-09-20T00:04:14.071Z,0
2018-09-20T00:05:15.464Z,0
2018-09-20T00:06:16.864Z,0
2018-09-20T00:07:18.260Z,0
2018-09-20T00:08:19.658Z,0
2018-09-20T00:09:21.055Z,0
2018-09-20T00:10:22.453Z,0
2018-09-20T00:11:23.841Z,0
2018-09-20T00:12:25.234Z,0
2018-09-20T00:13:26.633Z,0
2018-09-20T00:14:28.026Z,0
2018-09-20T00:15:29.422Z,0
2018-09-20T00:16:30.818Z,0
2018-09-20T00:17:32.213Z,0
2018-09-20T00:18:33.608Z,0
2018-09-20T00:19:34.999Z,0
2018-09-20T00:20:36.392Z,0
2018-09-20T00:21:37.788Z,0
2018-09-20T00:22:39.182Z,0
2018-09-20T00:23:40.580Z,0
2018-09-20T00:24:41.971Z,0
2018-09-20T00:25:43.380Z,0
2018-09-20T00:26:44.767Z,0
2018-09-20T00:27:46.166Z,0
2018-09-20T00:28:47.560Z,0
2018-09-20T00:29:48.956Z,0
2018-09-20T00:30:50.350Z,0
2018-09-20T00:31:51.741Z,0
2018-09-20T00:32:53.132Z,0
2018-09-20T00:33:54.527Z,0
2018-09-20T00:34:55.922Z,0
2018-09-20T00:35:57.316Z,0
2018-09-20T00:36:58.708Z,0
2018-09-20T00:38:00.106Z,0
2018-09-20T00:39:01.501Z,0
2018-09-20T00:40:02.893Z,0
2018-09-20T00:41:04.274Z,0
2018-09-20T00:42:05.668Z,0
2018-09-20T00:43:07.080Z,0
2018-09-20T00:44:08.472Z,0
2018-09-20T00:45:09.868Z,0
2018-09-20T00:46:11.263Z,0
2018-09-20T00:47:12.657Z,0
2018-09-20T00:48:14.059Z,0
2018-09-20T00:49:15.449Z,0
2018-09-20T00:50:16.845Z,0
2018-09-20T00:51:18.234Z,0
2018-09-20T00:52:19.629Z,0
2018-09-20T00:53:21.021Z,0
2018-09-20T00:54:22.410Z,0
2018-09-20T00:55:23.800Z,0
2018-09-20T00:56:25.195Z,0
2018-09-20T00:57:26.593Z,0
2018-09-20T00:58:27.988Z,0
2018-09-20T00:59:29.389Z,0
2018-09-20T01:00:30.793Z,0
2018-09-20T01:01:32.175Z,0
2018-09-20T01:02:33.573Z,0
2018-09-20T01:03:34.970Z,0
2018-09-20T01:04:36.359Z,0
2018-09-20T01:05:37.750Z,0
2018-09-20T01:06:39.147Z,0
2018-09-20T01:07:40.541Z,0
2018-09-20T01:08:41.933Z,0
2018-09-20T01:09:43.338Z,0
2018-09-20T01:10:44.728Z,0
2018-09-20T01:11:46.123Z,0
2018-09-20T01:12:47.516Z,0
2018-09-20T01:13:48.910Z,0
2018-09-20T01:14:50.298Z,0
2018-09-20T01:15:51.691Z,0
2018-09-20T01:16:53.084Z,0
2018-09-20T01:17:54.472Z,0
2018-09-20T01:18:55.877Z,0
2018-09-20T01:19:57.276Z,0
2018-09-20T01:20:58.666Z,0
2018-09-20T01:22:00.055Z,0
2018-09-20T01:23:01.446Z,0
2018-09-20T01:24:02.845Z,0
2018-09-20T01:25:04.235Z,0
2018-09-20T01:26:05.628Z,0
2018-09-20T01:27:07.025Z,0
2018-09-20T01:28:08.419Z,0
2018-09-20T01:29:09.851Z,0
2018-09-20T01:30:11.244Z,0
2018-09-20T01:31:12.634Z,0
2018-09-20T01:32:14.028Z,0
2018-09-20T01:33:15.422Z,0
2018-09-20T01:34:16.813Z,0
2018-09-20T01:35:18.233Z,0
2018-09-20T01:36:19.604Z,0
2018-09-20T01:37:20.996Z,0
2018-09-20T01:38:22.387Z,0
2018-09-20T01:39:23.783Z,0
2018-09-20T01:40:25.173Z,0
2018-09-20T01:41:26.574Z,0
2018-09-20T01:42:27.964Z,0
2018-09-20T01:43:29.354Z,0
2018-09-20T01:44:30.745Z,0
2018-09-20T01:45:32.139Z,0
2018-09-20T01:46:33.530Z,0
2018-09-20T01:47:34.926Z,0
2018-09-20T01:48:36.353Z,0
2018-09-20T01:49:37.758Z,0
2018-09-20T01:50:39.143Z,0
2018-09-20T01:51:40.533Z,0
2018-09-20T01:52:41.929Z,0
2018-09-20T01:53:43.322Z,0
2018-09-20T01:54:44.722Z,0
2018-09-20T01:55:46.113Z,0
2018-09-20T01:56:47.502Z,0
2018-09-20T01:57:48.893Z,0
2018-09-20T01:58:50.282Z,0
2018-09-20T01:59:51.679Z,0
2018-09-20T02:00:53.068Z,0
2018-09-20T02:01:54.462Z,0
2018-09-20T02:02:55.859Z,0
2018-09-20T02:03:57.249Z,0
2018-09-20T02:04:58.641Z,0
2018-09-20T02:06:00.034Z,0
2018-09-20T02:07:01.433Z,0
2018-09-20T02:08:02.818Z,0
2018-09-20T02:09:04.213Z,0
2018-09-20T02:10:05.609Z,0
2018-09-20T02:11:07.002Z,0
2018-09-20T02:12:08.399Z,0
2018-09-20T02:13:09.791Z,0
2018-09-20T02:14:11.182Z,0
2018-09-20T02:15:12.615Z,0
2018-09-20T02:16:14.007Z,0
2018-09-20T02:17:15.399Z,0
2018-09-20T02:18:16.792Z,0
2018-09-20T02:19:18.181Z,0
2018-09-20T02:20:19.568Z,0
2018-09-20T02:21:20.962Z,0
2018-09-20T02:22:22.355Z,0
2018-09-20T02:23:23.747Z,0
2018-09-20T02:24:25.135Z,0
2018-09-20T02:25:26.531Z,0
2018-09-20T02:26:27.923Z,0
2018-09-20T02:27:29.315Z,0
2018-09-20T02:28:30.709Z,0
2018-09-20T02:29:32.103Z,0
2018-09-20T02:30:33.502Z,0
2018-09-20T02:31:34.893Z,0
2018-09-20T02:32:36.282Z,0
2018-09-20T02:33:37.671Z,0
2018-09-20T02:34:39.064Z,0
2018-09-20T02:35:40.461Z,0
2018-09-20T02:36:41.856Z,0
2018-09-20T02:37:43.253Z,0
2018-09-20T02:38:44.645Z,0
2018-09-20T02:39:46.041Z,0
2018-09-20T02:40:47.432Z,0
2018-09-20T02:41:48.822Z,0
2018-09-20T02:42:50.218Z,0
2018-09-20T02:43:51.615Z,0
2018-09-20T02:44:53.012Z,0
2018-09-20T02:45:54.397Z,0
2018-09-20T02:46:55.799Z,0
2018-09-20T02:47:57.206Z,0
2018-09-20T02:48:58.594Z,0
2018-09-20T02:49:59.984Z,0
2018-09-20T02:51:01.378Z,0
2018-09-20T02:52:02.769Z,0
2018-09-20T02:53:04.161Z,0
2018-09-20T02:54:05.555Z,0
2018-09-20T02:55:06.946Z,0
2018-09-20T02:56:08.339Z,0
2018-09-20T02:57:09.726Z,0
2018-09-20T02:58:11.118Z,0
2018-09-20T02:59:12.512Z,0
2018-09-20T03:00:13.943Z,0
2018-09-20T03:01:15.447Z,0
2018-09-20T03:02:16.839Z,0
2018-09-20T03:03:18.228Z,0
2018-09-20T03:04:19.621Z,0
2018-09-20T03:05:21.016Z,0
2018-09-20T03:06:22.403Z,0
2018-09-20T03:07:23.795Z,0
2018-09-20T03:08:25.220Z,0
2018-09-20T03:09:26.625Z,0
2018-09-20T03:10:28.012Z,0
2018-09-20T03:11:29.407Z,0
2018-09-20T03:12:30.813Z,0
2018-09-20T03:13:32.207Z,0
2018-09-20T03:14:33.598Z,0
2018-09-20T03:15:34.994Z,0
2018-09-20T03:16:36.384Z,0
2018-09-20T03:17:37.773Z,0
2018-09-20T03:18:39.172Z,0
2018-09-20T03:19:40.562Z,0
2018-09-20T03:20:41.961Z,0
2018-09-20T03:21:43.349Z,0
2018-09-20T03:22:44.742Z,0
2018-09-20T03:23:46.139Z,0
2018-09-20T03:24:47.532Z,0
2018-09-20T03:25:48.917Z,0
2018-09-20T03:26:50.311Z,0
2018-09-20T03:27:51.706Z,0
2018-09-20T03:28:53.101Z,0
2018-09-20T03:29:54.482Z,0
2018-09-20T03:30:56.007Z,0
2018-09-20T03:31:57.264Z,0
2018-09-20T03:32:58.656Z,0
2018-09-20T03:34:00.080Z,0
2018-09-20T03:35:01.450Z,0
2018-09-20T03:36:02.833Z,0
2018-09-20T03:37:04.223Z,0
2018-09-20T03:38:05.615Z,0
2018-09-20T03:39:07.042Z,0
2018-09-20T03:40:08.399Z,0
2018-09-20T03:41:09.795Z,0
2018-09-20T03:42:11.182Z,0
2018-09-20T03:43:12.574Z,0
2018-09-20T03:44:13.969Z,0
2018-09-20T03:45:15.365Z,0
2018-09-20T03:46:16.787Z,0
2018-09-20T03:47:18.187Z,0
2018-09-20T03:48:19.580Z,0
2018-09-20T03:49:20.969Z,0
2018-09-20T03:50:22.364Z,0
2018-09-20T03:51:23.767Z,0
2018-09-20T03:52:25.151Z,0
2018-09-20T03:53:26.535Z,0
2018-09-20T03:54:27.924Z,0
2018-09-20T03:55:29.315Z,0
2018-09-20T03:56:30.709Z,0
2018-09-20T03:57:32.096Z,0
2018-09-20T03:58:33.496Z,0
2018-09-20T03:59:34.888Z,0
2018-09-20T04:00:36.280Z,0
2018-09-20T04:01:37.679Z,0
2018-09-20T04:02:39.063Z,0
2018-09-20T04:03:40.459Z,0
2018-09-20T04:04:41.850Z,0
2018-09-20T04:05:43.244Z,0
2018-09-20T04:06:44.650Z,0
2018-09-20T04:07:46.044Z,0
2018-09-20T04:08:47.440Z,0
2018-09-20T04:09:48.882Z,0
2018-09-20T04:10:50.229Z,0
2018-09-20T04:11:51.621Z,0
2018-09-20T04:12:53.019Z,0
2018-09-20T04:13:54.412Z,0
2018-09-20T04:14:55.805Z,0
2018-09-20T04:15:57.197Z,0
2018-09-20T04:16:58.592Z,0
2018-09-20T04:17:59.979Z,0
2018-09-20T04:19:01.374Z,0
2018-09-20T04:20:02.776Z,0
2018-09-20T04:21:04.161Z,0
2018-09-20T04:22:05.551Z,0
2018-09-20T04:23:06.941Z,0
2018-09-20T04:24:08.333Z,0
2018-09-20T04:25:09.723Z,0
2018-09-20T04:26:11.118Z,0
2018-09-20T04:27:12.509Z,0
2018-09-20T04:28:13.904Z,0
2018-09-20T04:29:15.302Z,0
2018-09-20T04:30:16.691Z,0
2018-09-20T04:31:18.081Z,0
2018-09-20T04:32:19.598Z,0
2018-09-20T04:33:20.987Z,0
2018-09-20T04:34:22.378Z,0
2018-09-20T04:35:23.770Z,0
2018-09-20T04:36:25.216Z,0
2018-09-20T04:37:26.711Z,0
2018-09-20T04:38:28.104Z,0
2018-09-20T04:39:29.506Z,0
2018-09-20T04:40:30.896Z,0
2018-09-20T04:41:32.286Z,0
2018-09-20T04:42:33.676Z,0
2018-09-20T04:43:35.065Z,0
2018-09-20T04:44:36.457Z,0
2018-09-20T04:45:37.850Z,0
2018-09-20T04:46:39.245Z,0
2018-09-20T04:47:40.639Z,0
2018-09-20T04:48:42.035Z,0
2018-09-20T04:49:43.421Z,4
2018-09-20T04:50:44.813Z,4
2018-09-20T04:51:46.204Z,0
2018-09-20T04:52:47.596Z,0
2018-09-20T04:53:48.990Z,0
2018-09-20T04:54:50.383Z,4
2018-09-20T04:55:51.778Z,4
2018-09-20T04:56:53.166Z,0
2018-09-20T04:57:54.561Z,4
2018-09-20T04:58:55.958Z,4
2018-09-20T04:59:57.400Z,8
2018-09-20T05:00:58.749Z,8
2018-09-20T05:02:00.133Z,8
2018-09-20T05:03:01.536Z,8
2018-09-20T05:04:02.933Z,8
2018-09-20T05:05:04.328Z,12
2018-09-20T05:06:05.720Z,12
2018-09-20T05:07:07.128Z,12
2018-09-20T05:08:08.530Z,16
2018-09-20T05:09:09.931Z,20
2018-09-20T05:10:11.329Z,24
2018-09-20T05:11:12.797Z,24
2018-09-20T05:12:14.272Z,28
2018-09-20T05:13:15.691Z,32
2018-09-20T05:14:17.084Z,36
2018-09-20T05:15:18.478Z,36
2018-09-20T05:16:19.874Z,44
2018-09-20T05:17:21.310Z,48
2018-09-20T05:18:22.701Z,52
2018-09-20T05:19:24.179Z,60
2018-09-20T05:20:25.573Z,68
2018-09-20T05:21:26.965Z,76
2018-09-20T05:22:28.360Z,84
2018-09-20T05:23:29.824Z,88
2018-09-20T05:24:31.218Z,100
2018-09-20T05:25:32.612Z,108
2018-09-20T05:26:33.998Z,116
2018-09-20T05:27:35.395Z,128
2018-09-20T05:28:36.783Z,140
2018-09-20T05:29:38.175Z,152
2018-09-20T05:30:39.576Z,160
2018-09-20T05:31:40.969Z,176
2018-09-20T05:32:43.200Z,188
2018-09-20T05:33:43.794Z,204
2018-09-20T05:34:45.197Z,216
2018-09-20T05:35:46.596Z,228
2018-09-20T05:36:47.987Z,236
2018-09-20T05:37:49.381Z,248
2018-09-20T05:38:50.777Z,256
2018-09-20T05:39:52.173Z,264
2018-09-20T05:40:53.591Z,268
2018-09-20T05:41:54.978Z,276
2018-09-20T05:42:56.371Z,284
2018-09-20T05:43:58.457Z,296
2018-09-20T05:44:59.852Z,308
2018-09-20T05:46:01.251Z,320
2018-09-20T05:47:02.641Z,336
2018-09-20T05:48:04.039Z,348
2018-09-20T05:49:05.437Z,360
2018-09-20T05:50:06.831Z,372
2018-09-20T05:51:08.224Z,376
2018-09-20T05:52:09.621Z,388
2018-09-20T05:53:11.018Z,396
2018-09-20T05:54:12.415Z,416
2018-09-20T05:55:13.805Z,428
2018-09-20T05:56:15.204Z,444
2018-09-20T05:57:16.594Z,452
2018-09-20T05:58:17.991Z,464
2018-09-20T05:59:19.457Z,472
2018-09-20T06:00:20.786Z,492
2018-09-20T06:01:22.174Z,508
2018-09-20T06:02:23.568Z,520
2018-09-20T06:03:24.964Z,528
2018-09-20T06:04:26.361Z,536
2018-09-20T06:05:27.864Z,544
2018-09-20T06:06:29.232Z,548
2018-09-20T06:07:30.641Z,552
2018-09-20T06:08:32.036Z,556
2018-09-20T06:09:33.446Z,568
2018-09-20T06:10:34.851Z,584
2018-09-20T06:11:36.249Z,624
2018-09-20T06:12:37.647Z,676
2018-09-20T06:13:39.046Z,712
2018-09-20T06:14:40.442Z,732
2018-09-20T06:15:41.839Z,744
2018-09-20T06:16:43.287Z,772
2018-09-20T06:17:44.708Z,812
2018-09-20T06:18:46.100Z,804
2018-09-20T06:19:47.491Z,748
2018-09-20T06:20:48.890Z,720
2018-09-20T06:21:50.296Z,708
2018-09-20T06:22:51.680Z,696
2018-09-20T06:23:53.073Z,696
2018-09-20T06:24:54.469Z,708
2018-09-20T06:25:55.866Z,748
2018-09-20T06:26:57.280Z,816
2018-09-20T06:27:58.661Z,892
2018-09-20T06:29:00.059Z,912
2018-09-20T06:30:01.454Z,844
2018-09-20T06:31:02.852Z,756
2018-09-20T06:32:04.245Z,720
2018-09-20T06:33:05.664Z,728
2018-09-20T06:34:07.089Z,724
2018-09-20T06:35:08.483Z,716
2018-09-20T06:36:09.880Z,724
2018-09-20T06:37:11.274Z,788
2018-09-20T06:38:12.670Z,848
2018-09-20T06:39:14.061Z,856
2018-09-20T06:40:15.454Z,876
2018-09-20T06:41:16.857Z,892
2018-09-20T06:42:18.255Z,912
2018-09-20T06:43:19.648Z,940
2018-09-20T06:44:21.049Z,924
2018-09-20T06:45:22.447Z,920
2018-09-20T06:46:23.877Z,916
2018-09-20T06:47:25.278Z,936
2018-09-20T06:48:26.676Z,976
2018-09-20T06:49:28.072Z,1032
2018-09-20T06:50:29.527Z,1088
2018-09-20T06:51:30.932Z,1128
2018-09-20T06:52:32.428Z,1152
2018-09-20T06:53:33.826Z,1272
2018-09-20T06:54:35.221Z,1336
2018-09-20T06:55:36.622Z,1388
2018-09-20T06:56:38.045Z,1444
2018-09-20T06:57:39.419Z,1428
2018-09-20T06:58:40.818Z,1384
2018-09-20T06:59:42.213Z,1364
2018-09-20T07:00:43.610Z,1308
2018-09-20T07:01:45.021Z,1360
2018-09-20T07:02:46.431Z,1464
2018-09-20T07:03:47.826Z,1472
2018-09-20T07:04:49.229Z,1480
2018-09-20T07:05:50.625Z,1492
2018-09-20T07:06:52.019Z,1468
2018-09-20T07:07:53.413Z,1432
2018-09-20T07:08:54.808Z,1376
2018-09-20T07:09:56.204Z,1368
2018-09-20T07:10:57.599Z,1296
2018-09-20T07:11:58.997Z,1252
2018-09-20T07:13:00.390Z,1100
2018-09-20T07:14:01.791Z,1124
2018-09-20T07:15:03.190Z,1192
2018-09-20T07:16:04.588Z,1124
2018-09-20T07:17:05.988Z,1080
2018-09-20T07:18:07.387Z,1152
2018-09-20T07:19:08.855Z,1128
2018-09-20T07:20:10.186Z,1124
2018-09-20T07:21:11.581Z,1176
2018-09-20T07:22:12.980Z,1252
2018-09-20T07:23:14.380Z,1224
2018-09-20T07:24:15.782Z,1224
2018-09-20T07:25:17.190Z,1260
2018-09-20T07:26:18.578Z,1284
2018-09-20T07:27:19.973Z,1276
2018-09-20T07:28:21.369Z,1268
2018-09-20T07:29:22.776Z,1272
2018-09-20T07:30:24.175Z,1284
2018-09-20T07:31:25.580Z,1288
2018-09-20T07:32:26.981Z,1288
2018-09-20T07:33:28.377Z,1292
2018-09-20T07:34:29.775Z,1300
2018-09-20T07:35:31.170Z,1304
2018-09-20T07:36:32.665Z,1312
2018-09-20T07:37:34.123Z,1324
2018-09-20T07:38:35.525Z,1344
2018-09-20T07:39:36.927Z,1372
2018-09-20T07:40:38.331Z,1384
2018-09-20T07:41:39.724Z,1392
2018-09-20T07:42:41.117Z,1384
2018-09-20T07:43:42.557Z,1392
2018-09-20T07:44:43.910Z,1400
2018-09-20T07:45:45.333Z,1400
2018-09-20T07:46:46.729Z,1404
2018-09-20T07:47:48.134Z,1412
2018-09-20T07:48:49.528Z,1416
2018-09-20T07:49:50.923Z,1416
2018-09-20T07:50:52.319Z,1440
2018-09-20T07:51:53.715Z,1444
2018-09-20T07:52:55.113Z,1456
2018-09-20T07:53:56.525Z,1468
2018-09-20T07:54:57.963Z,1488
2018-09-20T07:55:59.357Z,1500
2018-09-20T07:57:00.777Z,1516
2018-09-20T07:58:02.170Z,1528
2018-09-20T07:59:03.568Z,1540
2018-09-20T08:00:04.968Z,1556
2018-09-20T08:01:06.366Z,1580
2018-09-20T08:02:07.875Z,1600
2018-09-20T08:03:09.157Z,1620
2018-09-20T08:04:10.555Z,1648
2018-09-20T08:05:11.955Z,1664
2018-09-20T08:06:13.348Z,1692
2018-09-20T08:07:14.817Z,1728
2018-09-20T08:08:16.143Z,1756
2018-09-20T08:09:17.550Z,1792
2018-09-20T08:10:18.957Z,1840
2018-09-20T08:11:20.352Z,1896
2018-09-20T08:12:21.750Z,1992
2018-09-20T08:13:23.147Z,2064
2018-09-20T08:14:24.545Z,2100
2018-09-20T08:15:25.944Z,2132
2018-09-20T08:16:27.344Z,2152
2018-09-20T08:17:28.740Z,2224
2018-09-20T08:18:30.145Z,2272
2018-09-20T08:19:31.541Z,2348
2018-09-20T08:20:32.938Z,2412
2018-09-20T08:21:34.395Z,2512
2018-09-20T08:22:35.778Z,2656
2018-09-20T08:23:37.179Z,2728
2018-09-20T08:24:38.575Z,2856
2018-09-20T08:25:39.975Z,2976
2018-09-20T08:26:41.372Z,3188
2018-09-20T08:27:42.799Z,3380
2018-09-20T08:28:44.167Z,3616
2018-09-20T08:29:45.567Z,4136
2018-09-20T08:30:46.981Z,4852
2018-09-20T08:31:48.381Z,5240
2018-09-20T08:32:49.773Z,4004
2018-09-20T08:33:51.173Z,4176
2018-09-20T08:34:52.571Z,3956
2018-09-20T08:35:53.973Z,5652
2018-09-20T08:36:55.377Z,5268
2018-09-20T08:37:56.780Z,3796
2018-09-20T08:38:58.209Z,4616
2018-09-20T08:39:59.589Z,4088
2018-09-20T08:41:00.986Z,4036
2018-09-20T08:42:02.389Z,4488
2018-09-20T08:43:03.788Z,4948
2018-09-20T08:44:05.183Z,6132
2018-09-20T08:45:06.583Z,6232
2018-09-20T08:46:07.985Z,5780
2018-09-20T08:47:09.383Z,4388
2018-09-20T08:48:10.784Z,3592
2018-09-20T08:49:12.180Z,3600
2018-09-20T08:50:13.581Z,3824
2018-09-20T08:51:14.984Z,5700
2018-09-20T08:52:16.405Z,5984
2018-09-20T08:53:17.807Z,6996
2018-09-20T08:54:19.194Z,4148
2018-09-20T08:55:20.597Z,4392
2018-09-20T08:56:21.992Z,5076
2018-09-20T08:57:23.546Z,4732
2018-09-20T08:58:24.952Z,7036
2018-09-20T08:59:26.350Z,5824
2018-09-20T09:00:27.746Z,4928
2018-09-20T09:01:29.146Z,4488
2018-09-20T09:02:30.613Z,5920
2018-09-20T09:03:32.008Z,8744
2018-09-20T09:04:33.442Z,3912
2018-09-20T09:05:34.810Z,3192
2018-09-20T09:06:36.302Z,4960
2018-09-20T09:07:37.719Z,27168
2018-09-20T09:08:39.124Z,46208
2018-09-20T09:09:40.550Z,5124
2018-09-20T09:10:41.974Z,5360
2018-09-20T09:11:43.389Z,55168
2018-09-20T09:12:44.842Z,49920
2018-09-20T09:13:46.325Z,53056
2018-09-20T09:14:47.721Z,45600
2018-09-20T09:15:49.135Z,33792
2018-09-20T09:16:50.563Z,51296
2018-09-20T09:17:51.964Z,46080
2018-09-20T09:18:53.370Z,13700
2018-09-20T09:19:54.787Z,55040
2018-09-20T09:20:56.237Z,57088
2018-09-20T09:21:57.639Z,58912
2018-09-20T09:22:59.051Z,55040
2018-09-20T09:24:00.470Z,56000
2018-09-20T09:25:01.880Z,14124
2018-09-20T09:26:03.347Z,12876
2018-09-20T09:27:04.787Z,49024
2018-09-20T09:28:06.190Z,58496
2018-09-20T09:29:07.624Z,60736
2018-09-20T09:30:09.086Z,63008
2018-09-20T09:31:10.493Z,54784
2018-09-20T09:32:11.899Z,58944
2018-09-20T09:33:13.333Z,60000
2018-09-20T09:34:14.766Z,56832
2018-09-20T09:35:16.208Z,41728
2018-09-20T09:36:17.628Z,9788
2018-09-20T09:37:19.069Z,64192
2018-09-20T09:38:20.482Z,61344
2018-09-20T09:39:21.962Z,61568
2018-09-20T09:40:23.361Z,63360
2018-09-20T09:41:24.782Z,66464
2018-09-20T09:42:26.239Z,61632
2018-09-20T09:43:27.645Z,59808
2018-09-20T09:44:29.051Z,60352
2018-09-20T09:45:30.476Z,62016
2018-09-20T09:46:31.902Z,63488
2018-09-20T09:47:33.309Z,61312
2018-09-20T09:48:34.751Z,52704
2018-09-20T09:49:36.191Z,46272
2018-09-20T09:50:37.614Z,46304
2018-09-20T09:51:39.024Z,48960
2018-09-20T09:52:40.453Z,51296
2018-09-20T09:53:41.867Z,47040
2018-09-20T09:54:43.324Z,50720
2018-09-20T09:55:44.672Z,49376
2018-09-20T09:56:46.081Z,49920
2018-09-20T09:57:47.494Z,53280
2018-09-20T09:58:48.922Z,47360
2018-09-20T09:59:50.340Z,12840
2018-09-20T10:00:51.740Z,54464
2018-09-20T10:01:53.145Z,61824
2018-09-20T10:02:54.689Z,54112
2018-09-20T10:03:56.101Z,29856
2018-09-20T10:04:57.550Z,52032
2018-09-20T10:05:58.952Z,49568
2018-09-20T10:07:00.396Z,35552
2018-09-20T10:08:01.783Z,25664
2018-09-20T10:09:03.192Z,19616
2018-09-20T10:10:04.613Z,14984
2018-09-20T10:11:06.025Z,14008
2018-09-20T10:12:07.432Z,11484
2018-09-20T10:13:08.833Z,11576
2018-09-20T10:14:10.237Z,12476
2018-09-20T10:15:11.666Z,10428
2018-09-20T10:16:13.072Z,9416
2018-09-20T10:17:14.484Z,12508
2018-09-20T10:18:15.925Z,11260
2018-09-20T10:19:17.329Z,9828
2018-09-20T10:20:18.730Z,9988
2018-09-20T10:21:20.137Z,11312
2018-09-20T10:22:21.542Z,12156
2018-09-20T10:23:22.948Z,12056
2018-09-20T10:24:24.355Z,12608
2018-09-20T10:25:25.756Z,11428
2018-09-20T10:26:27.189Z,11508
2018-09-20T10:27:28.591Z,12592
2018-09-20T10:28:29.993Z,12336
2018-09-20T10:29:31.397Z,12556
2018-09-20T10:30:32.800Z,11476
2018-09-20T10:31:34.268Z,10508
2018-09-20T10:32:35.632Z,9380
2018-09-20T10:33:37.118Z,8688
2018-09-20T10:34:38.590Z,10068
2018-09-20T10:35:40.016Z,10496
2018-09-20T10:36:41.416Z,9520
2018-09-20T10:37:42.819Z,9184
2018-09-20T10:38:44.221Z,8228
2018-09-20T10:39:45.626Z,9944
2018-09-20T10:40:47.036Z,12224
2018-09-20T10:41:48.452Z,12400
2018-09-20T10:42:49.852Z,11260
2018-09-20T10:43:51.260Z,11608
2018-09-20T10:44:52.661Z,12128
2018-09-20T10:45:54.065Z,13476
2018-09-20T10:46:55.467Z,10660
2018-09-20T10:47:56.873Z,10736
2018-09-20T10:48:58.274Z,11108
2018-09-20T10:49:59.673Z,12004
2018-09-20T10:51:01.085Z,12088
2018-09-20T10:52:02.486Z,13104
2018-09-20T10:53:03.890Z,10936
2018-09-20T10:54:05.297Z,12556
2018-09-20T10:55:06.702Z,12048
2018-09-20T10:56:08.102Z,12512
2018-09-20T10:57:09.504Z,13408
2018-09-20T10:58:10.903Z,14424
2018-09-20T10:59:12.309Z,14352
2018-09-20T11:00:13.714Z,14032
2018-09-20T11:01:15.120Z,15188
2018-09-20T11:02:16.517Z,14184
2018-09-20T11:03:17.972Z,13120
2018-09-20T11:04:19.340Z,13332
2018-09-20T11:05:20.741Z,12420
2018-09-20T11:06:22.145Z,7248
2018-09-20T11:07:23.626Z,6032
2018-09-20T11:08:25.046Z,3808
2018-09-20T11:09:26.447Z,4020
2018-09-20T11:10:27.871Z,5104
2018-09-20T11:11:29.251Z,7348
2018-09-20T11:12:30.652Z,11436
2018-09-20T11:13:32.063Z,15712
2018-09-20T11:14:33.467Z,16064
2018-09-20T11:15:34.907Z,16128
2018-09-20T11:16:36.310Z,15840
2018-09-20T11:17:37.759Z,15840
2018-09-20T11:18:39.161Z,15680
2018-09-20T11:19:40.564Z,15344
2018-09-20T11:20:41.963Z,15388
2018-09-20T11:21:43.471Z,15648
2018-09-20T11:22:44.874Z,15216
2018-09-20T11:23:46.275Z,15712
2018-09-20T11:24:47.672Z,15744
2018-09-20T11:25:49.089Z,15680
2018-09-20T11:26:50.489Z,15904
2018-09-20T11:27:51.898Z,15936
2018-09-20T11:28:53.303Z,15872
2018-09-20T11:29:54.708Z,16128
2018-09-20T11:30:56.151Z,15776
2018-09-20T11:31:57.544Z,15872
2018-09-20T11:32:58.939Z,15840
2018-09-20T11:34:00.345Z,14256
2018-09-20T11:35:01.753Z,13952
2018-09-20T11:36:03.156Z,15488
2018-09-20T11:37:04.575Z,15004
2018-09-20T11:38:05.981Z,15220
2018-09-20T11:39:07.404Z,15488
2018-09-20T11:40:08.802Z,15488
2018-09-20T11:41:10.229Z,15520
2018-09-20T11:42:11.638Z,15052
2018-09-20T11:43:13.045Z,14536
2018-09-20T11:44:14.449Z,13128
2018-09-20T11:45:15.924Z,14696
2018-09-20T11:46:17.326Z,13472
2018-09-20T11:47:18.732Z,13804
2018-09-20T11:48:20.133Z,14460
2018-09-20T11:49:21.535Z,14872
2018-09-20T11:50:22.940Z,14764
2018-09-20T11:51:24.356Z,14732
2018-09-20T11:52:25.757Z,11756
2018-09-20T11:53:27.160Z,12724
2018-09-20T11:54:28.560Z,13896
2018-09-20T11:55:29.993Z,14832
2018-09-20T11:56:31.400Z,14788
2018-09-20T11:57:32.894Z,14432
2018-09-20T11:58:34.302Z,14432
2018-09-20T11:59:35.708Z,13984
2018-09-20T12:00:37.148Z,12864
2018-09-20T12:01:38.548Z,12600
2018-09-20T12:02:39.955Z,12804
2018-09-20T12:03:41.365Z,14560
2018-09-20T12:04:42.768Z,14916
2018-09-20T12:05:44.178Z,14776
2018-09-20T12:06:45.580Z,14860
2018-09-20T12:07:46.982Z,8468
2018-09-20T12:08:48.388Z,14108
2018-09-20T12:09:49.799Z,4232
2018-09-20T12:10:51.210Z,12928
2018-09-20T12:11:52.713Z,13400
2018-09-20T12:12:54.190Z,13660
2018-09-20T12:13:55.645Z,12340
2018-09-20T12:14:57.049Z,13260
2018-09-20T12:15:58.457Z,13804
2018-09-20T12:16:59.852Z,14100
2018-09-20T12:18:01.270Z,14008
2018-09-20T12:19:02.677Z,5204
2018-09-20T12:20:04.163Z,14324
2018-09-20T12:21:05.482Z,14404
2018-09-20T12:22:06.886Z,14368
2018-09-20T12:23:08.283Z,14196
2018-09-20T12:24:09.687Z,14004
2018-09-20T12:25:11.116Z,13944
2018-09-20T12:26:12.520Z,13628
2018-09-20T12:27:13.924Z,13560
2018-09-20T12:28:15.331Z,13624
2018-09-20T12:29:16.741Z,13672
2018-09-20T12:30:18.138Z,13688
2018-09-20T12:31:19.537Z,13616
2018-09-20T12:32:20.968Z,13432
2018-09-20T12:33:22.383Z,13060
2018-09-20T12:34:23.792Z,12776
2018-09-20T12:35:25.207Z,12612
2018-09-20T12:36:26.591Z,12908
2018-09-20T12:37:28.048Z,12952
2018-09-20T12:38:29.454Z,12620
2018-09-20T12:39:30.857Z,12760
2018-09-20T12:40:32.263Z,12880
2018-09-20T12:41:33.676Z,12964
2018-09-20T12:42:35.112Z,12928
2018-09-20T12:43:36.533Z,12808
2018-09-20T12:44:37.968Z,12796
2018-09-20T12:45:39.406Z,12768
2018-09-20T12:46:40.811Z,12408
2018-09-20T12:47:42.219Z,10448
2018-09-20T12:48:43.627Z,8984
2018-09-20T12:49:45.025Z,9772
2018-09-20T12:50:46.425Z,11708
2018-09-20T12:51:47.832Z,12524
2018-09-20T12:52:49.241Z,12432
2018-09-20T12:53:50.645Z,12064
2018-09-20T12:54:52.051Z,12072
2018-09-20T12:55:53.453Z,11464
2018-09-20T12:56:54.857Z,11720
2018-09-20T12:57:56.262Z,10488
2018-09-20T12:58:57.664Z,11312
2018-09-20T12:59:59.071Z,11988
2018-09-20T13:01:00.476Z,11500
2018-09-20T13:02:01.907Z,11020
2018-09-20T13:03:03.285Z,10372
2018-09-20T13:04:04.686Z,9588
2018-09-20T13:05:06.178Z,11920
2018-09-20T13:06:07.494Z,10176
2018-09-20T13:07:08.896Z,9780
2018-09-20T13:08:10.301Z,10440
2018-09-20T13:09:11.723Z,11064
2018-09-20T13:10:13.130Z,10256
2018-09-20T13:11:14.553Z,10480
2018-09-20T13:12:15.970Z,10276
2018-09-20T13:13:17.379Z,9880
2018-09-20T13:14:18.785Z,9736
2018-09-20T13:15:20.185Z,10276
2018-09-20T13:16:21.623Z,10676
2018-09-20T13:17:23.029Z,10808
2018-09-20T13:18:24.428Z,10588
2018-09-20T13:19:25.874Z,10044
2018-09-20T13:20:27.328Z,9240
2018-09-20T13:21:28.703Z,8840
2018-09-20T13:22:30.105Z,8296
2018-09-20T13:23:31.516Z,7376
2018-09-20T13:24:32.922Z,7920
2018-09-20T13:25:34.496Z,8624
2018-09-20T13:26:35.727Z,8580
2018-09-20T13:27:37.135Z,8348
2018-09-20T13:28:38.669Z,8592
2018-09-20T13:29:40.104Z,8468
2018-09-20T13:30:41.509Z,8980
2018-09-20T13:31:43.038Z,8352
2018-09-20T13:32:44.317Z,8780
2018-09-20T13:33:45.715Z,7688
2018-09-20T13:34:47.122Z,7636
2018-09-20T13:35:48.524Z,7932
2018-09-20T13:36:49.926Z,7232
2018-09-20T13:37:51.334Z,7624
2018-09-20T13:38:52.735Z,7696
2018-09-20T13:39:54.143Z,7812
2018-09-20T13:40:55.551Z,8064
2018-09-20T13:41:56.966Z,6968
2018-09-20T13:42:58.373Z,9040
2018-09-20T13:43:59.775Z,9740
2018-09-20T13:45:01.179Z,9468
2018-09-20T13:46:02.599Z,9920
2018-09-20T13:47:04.008Z,9852
2018-09-20T13:48:05.440Z,9472
2018-09-20T13:49:06.843Z,9284
2018-09-20T13:50:08.245Z,9196
2018-09-20T13:51:09.655Z,9060
2018-09-20T13:52:11.046Z,9140
2018-09-20T13:53:12.455Z,9016
2018-09-20T13:54:13.855Z,9028
2018-09-20T13:55:15.253Z,9004
2018-09-20T13:56:16.659Z,8960
2018-09-20T13:57:18.646Z,8876
2018-09-20T13:58:20.051Z,8792
2018-09-20T13:59:21.450Z,8700
2018-09-20T14:00:22.850Z,8648
2018-09-20T14:01:24.255Z,8368
2018-09-20T14:02:25.654Z,8548
2018-09-20T14:03:27.057Z,8400